Time,TemperatureF,DewpointF,PressureIn,WindDirection,WindDirectionDegrees,WindSpeedMPH,WindSpeedGustMPH,Humidity,HourlyPrecipIn,Conditions,Clouds,dailyrainin,SoftwareType,DateUTC
2013-09-29 00:11:00,55.0,55.0,-100.00,South,180,4.0,14.0,101,-99.99,,,-99.99,,2013-09-29 07:11:00,
2013-09-29 01:22:00,55.0,55.0,-100.00,SE,135,2.0,9.0,101,-99.99,,,-99.99,,2013-09-29 08:22:00,
2013-09-29 02:22:00,55.0,55.0,-100.00,East,90,2.0,16.0,101,-99.99,,,-99.99,,2013-09-29 09:22:00,
2013-09-29 03:23:00,56.0,56.0,-100.00,SE,135,3.0,12.0,101,-99.99,,,-99.99,,2013-09-29 10:23:00,
2013-09-29 05:52:00,57.0,57.0,-100.00,SE,135,8.0,18.0,101,-99.99,,,-99.99,,2013-09-29 12:52:00,
2013-09-29 06:22:00,57.0,57.0,-100.00,South,180,8.0,18.0,101,-99.99,,,-99.99,,2013-09-29 13:22:00,
2013-09-29 07:21:00,57.0,57.0,-100.00,South,180,9.0,21.0,101,-99.99,,,-99.99,,2013-09-29 14:21:00,
2013-09-29 08:22:00,57.0,57.0,-100.00,South,180,11.0,22.0,101,-99.99,,,-99.99,,2013-09-29 15:22:00,
2013-09-29 09:24:00,57.0,57.0,-100.00,SE,135,9.0,17.0,101,-99.99,,,-99.99,,2013-09-29 16:24:00,
2013-09-29 10:23:00,58.0,58.0,-100.00,South,180,12.0,21.0,101,-99.99,,,-99.99,,2013-09-29 17:23:00,
2013-09-29 11:22:00,57.0,57.0,-100.00,South,180,15.0,26.0,101,-99.99,,,-99.99,,2013-09-29 18:22:00,
2013-09-29 12:21:00,57.0,57.0,-100.00,SE,135,13.0,27.0,101,-99.99,,,-99.99,,2013-09-29 19:21:00,
2013-09-29 13:22:00,56.0,56.0,-100.00,South,180,10.0,25.0,101,-99.99,,,-99.99,,2013-09-29 20:22:00,
2013-09-29 14:21:00,55.0,55.0,-100.00,South,180,11.0,24.0,101,-99.99,,,-99.99,,2013-09-29 21:21:00,
2013-09-29 15:23:00,57.0,57.0,-100.00,South,180,20.0,35.0,101,-99.99,,,-99.99,,2013-09-29 22:23:00,
2013-09-29 17:22:00,58.0,58.0,-100.00,South,180,14.0,26.0,101,-99.99,,,-99.99,,2013-09-30 00:22:00,
2013-09-29 18:22:00,58.0,58.0,-100.00,South,180,17.0,29.0,101,-99.99,,,-99.99,,2013-09-30 01:22:00,
2013-09-29 19:22:00,59.0,59.0,-100.00,South,180,27.0,36.0,101,-99.99,,,-99.99,,2013-09-30 02:22:00,
2013-09-29 20:22:00,59.0,59.0,-100.00,South,180,24.0,32.0,101,-99.99,,,-99.99,,2013-09-30 03:22:00,
2013-09-29 23:21:00,55.0,55.0,-100.00,South,180,4.0,10.0,101,-99.99,,,-99.99,,2013-09-30 06:21:00,